sensor_id;sensor_type;location;lat;lon;timestamp;P1;durP1;ratioP1;P2;durP2;ratioP2
41289;SDS011;36117;46.680;11.154;2022-08-01T00:01:02;5.22;;;1.50;;
41289;SDS011;36117;46.680;11.154;2022-08-01T00:03:28;3.17;;;1.98;;
41289;SDS011;36117;46.680;11.154;2022-08-01T00:05:54;2.45;;;1.67;;
41289;SDS011;36117;46.680;11.154;2022-08-01T00:08:20;2.53;;;1.80;;
41289;SDS011;36117;46.680;11.154;2022-08-01T00:10:46;2.25;;;1.33;;
41289;SDS011;36117;46.680;11.154;2022-08-01T00:13:12;3.65;;;1.70;;
41289;SDS011;36117;46.680;11.154;2022-08-01T00:15:37;3.30;;;1.60;;
41289;SDS011;36117;46.680;11.154;2022-08-01T00:18:03;3.50;;;2.00;;
41289;SDS011;36117;46.680;11.154;2022-08-01T00:20:29;2.55;;;1.73;;
41289;SDS011;36117;46.680;11.154;2022-08-01T00:22:55;2.20;;;1.50;;
41289;SDS011;36117;46.680;11.154;2022-08-01T00:25:21;4.25;;;1.55;;
41289;SDS011;36117;46.680;11.154;2022-08-01T00:27:47;3.00;;;1.58;;
41289;SDS011;36117;46.680;11.154;2022-08-01T00:30:12;3.63;;;1.55;;
41289;SDS011;36117;46.680;11.154;2022-08-01T00:32:38;3.85;;;1.63;;
41289;SDS011;36117;46.680;11.154;2022-08-01T00:35:04;2.95;;;1.55;;
41289;SDS011;36117;46.680;11.154;2022-08-01T00:37:31;5.75;;;1.60;;
41289;SDS011;36117;46.680;11.154;2022-08-01T00:39:57;4.93;;;1.42;;
41289;SDS011;36117;46.680;11.154;2022-08-01T00:42:23;8.82;;;2.00;;
41289;SDS011;36117;46.680;11.154;2022-08-01T00:44:48;3.22;;;1.92;;
41289;SDS011;36117;46.680;11.154;2022-08-01T00:47:14;2.53;;;1.55;;
41289;SDS011;36117;46.680;11.154;2022-08-01T00:49:40;3.40;;;1.90;;
41289;SDS011;36117;46.680;11.154;2022-08-01T00:52:06;4.18;;;1.83;;
41289;SDS011;36117;46.680;11.154;2022-08-01T00:54:34;2.22;;;1.55;;
41289;SDS011;36117;46.680;11.154;2022-08-01T00:57:01;7.07;;;2.80;;
41289;SDS011;36117;46.680;11.154;2022-08-01T00:59:28;4.93;;;1.85;;
41289;SDS011;36117;46.680;11.154;2022-08-01T01:01:54;1.98;;;1.48;;
41289;SDS011;36117;46.680;11.154;2022-08-01T01:04:20;3.70;;;1.92;;
41289;SDS011;36117;46.680;11.154;2022-08-01T01:14:59;2.72;;;1.70;;
41289;SDS011;36117;46.680;11.154;2022-08-01T01:20:12;5.50;;;1.90;;
41289;SDS011;36117;46.680;11.154;2022-08-01T01:31:26;4.30;;;1.42;;
41289;SDS011;36117;46.680;11.154;2022-08-01T01:33:56;3.90;;;1.83;;
41289;SDS011;36117;46.680;11.154;2022-08-01T01:36:25;8.18;;;2.78;;
41289;SDS011;36117;46.680;11.154;2022-08-01T01:38:52;4.00;;;2.00;;
41289;SDS011;36117;46.680;11.154;2022-08-01T01:41:19;5.10;;;1.92;;
41289;SDS011;36117;46.680;11.154;2022-08-01T01:43:46;4.85;;;1.65;;
41289;SDS011;36117;46.680;11.154;2022-08-01T01:46:14;3.00;;;1.60;;
41289;SDS011;36117;46.680;11.154;2022-08-01T01:48:43;2.72;;;1.77;;
41289;SDS011;36117;46.680;11.154;2022-08-01T01:51:12;6.20;;;1.65;;
41289;SDS011;36117;46.680;11.154;2022-08-01T01:53:39;2.38;;;1.60;;
41289;SDS011;36117;46.680;11.154;2022-08-01T01:56:05;2.90;;;1.80;;
41289;SDS011;36117;46.680;11.154;2022-08-01T01:58:34;1.92;;;1.50;;
41289;SDS011;36117;46.680;11.154;2022-08-01T02:01:00;1.67;;;1.58;;
41289;SDS011;36117;46.680;11.154;2022-08-01T02:03:28;4.25;;;1.50;;
41289;SDS011;36117;46.680;11.154;2022-08-01T02:05:56;7.03;;;1.52;;
41289;SDS011;36117;46.680;11.154;2022-08-01T02:08:24;3.55;;;1.63;;
41289;SDS011;36117;46.680;11.154;2022-08-01T02:10:51;2.35;;;1.65;;
41289;SDS011;36117;46.680;11.154;2022-08-01T02:13:37;4.22;;;1.77;;
41289;SDS011;36117;46.680;11.154;2022-08-01T02:16:05;2.97;;;1.65;;
41289;SDS011;36117;46.680;11.154;2022-08-01T02:18:33;2.00;;;1.55;;
41289;SDS011;36117;46.680;11.154;2022-08-01T02:21:00;8.60;;;3.42;;
41289;SDS011;36117;46.680;11.154;2022-08-01T02:23:33;2.07;;;1.50;;
41289;SDS011;36117;46.680;11.154;2022-08-01T02:26:03;1.98;;;1.50;;
41289;SDS011;36117;46.680;11.154;2022-08-01T02:31:25;1.95;;;1.20;;
41289;SDS011;36117;46.680;11.154;2022-08-01T02:33:55;3.67;;;1.65;;
41289;SDS011;36117;46.680;11.154;2022-08-01T02:36:28;4.07;;;1.55;;
41289;SDS011;36117;46.680;11.154;2022-08-01T02:38:56;5.03;;;2.10;;
41289;SDS011;36117;46.680;11.154;2022-08-01T02:41:26;1.70;;;1.45;;
41289;SDS011;36117;46.680;11.154;2022-08-01T02:44:00;2.50;;;1.70;;
41289;SDS011;36117;46.680;11.154;2022-08-01T02:49:31;4.30;;;1.77;;
41289;SDS011;36117;46.680;11.154;2022-08-01T02:54:26;2.03;;;1.67;;
41289;SDS011;36117;46.680;11.154;2022-08-01T02:56:54;1.90;;;1.45;;
41289;SDS011;36117;46.680;11.154;2022-08-01T02:59:22;6.35;;;1.65;;
41289;SDS011;36117;46.680;11.154;2022-08-01T03:01:51;4.53;;;2.10;;
41289;SDS011;36117;46.680;11.154;2022-08-01T03:04:22;2.72;;;1.70;;
41289;SDS011;36117;46.680;11.154;2022-08-01T03:06:49;3.03;;;1.98;;
41289;SDS011;36117;46.680;11.154;2022-08-01T03:09:18;2.58;;;1.73;;
41289;SDS011;36117;46.680;11.154;2022-08-01T03:11:45;1.80;;;1.70;;
41289;SDS011;36117;46.680;11.154;2022-08-01T03:14:13;4.95;;;1.70;;
41289;SDS011;36117;46.680;11.154;2022-08-01T03:16:41;5.47;;;2.03;;
41289;SDS011;36117;46.680;11.154;2022-08-01T03:19:10;4.80;;;1.83;;
41289;SDS011;36117;46.680;11.154;2022-08-01T03:21:37;3.42;;;1.88;;
41289;SDS011;36117;46.680;11.154;2022-08-01T03:24:05;1.90;;;1.55;;
41289;SDS011;36117;46.680;11.154;2022-08-01T03:26:34;4.65;;;1.45;;
41289;SDS011;36117;46.680;11.154;2022-08-01T03:29:06;2.47;;;1.55;;
41289;SDS011;36117;46.680;11.154;2022-08-01T03:31:37;2.55;;;1.50;;
41289;SDS011;36117;46.680;11.154;2022-08-01T03:34:07;3.33;;;1.92;;
41289;SDS011;36117;46.680;11.154;2022-08-01T03:36:34;4.07;;;1.80;;
41289;SDS011;36117;46.680;11.154;2022-08-01T03:39:10;4.25;;;1.83;;
41289;SDS011;36117;46.680;11.154;2022-08-01T03:41:38;2.78;;;1.55;;
41289;SDS011;36117;46.680;11.154;2022-08-01T03:44:10;3.65;;;1.45;;
41289;SDS011;36117;46.680;11.154;2022-08-01T03:46:47;4.13;;;1.73;;
41289;SDS011;36117;46.680;11.154;2022-08-01T03:49:17;2.28;;;1.73;;
41289;SDS011;36117;46.680;11.154;2022-08-01T03:51:47;5.43;;;1.60;;
41289;SDS011;36117;46.680;11.154;2022-08-01T03:54:16;3.80;;;2.53;;
41289;SDS011;36117;46.680;11.154;2022-08-01T03:56:49;3.70;;;2.25;;
41289;SDS011;36117;46.680;11.154;2022-08-01T03:59:17;6.10;;;3.05;;
41289;SDS011;36117;46.680;11.154;2022-08-01T04:01:44;3.67;;;2.60;;
41289;SDS011;36117;46.680;11.154;2022-08-01T04:04:11;5.43;;;1.70;;
41289;SDS011;36117;46.680;11.154;2022-08-01T04:06:38;4.70;;;1.75;;
41289;SDS011;36117;46.680;11.154;2022-08-01T04:09:10;5.18;;;2.20;;
41289;SDS011;36117;46.680;11.154;2022-08-01T04:11:37;9.50;;;2.08;;
41289;SDS011;36117;46.680;11.154;2022-08-01T04:14:03;11.27;;;2.25;;
41289;SDS011;36117;46.680;11.154;2022-08-01T04:16:29;5.00;;;1.63;;
41289;SDS011;36117;46.680;11.154;2022-08-01T04:18:55;18.48;;;2.00;;
41289;SDS011;36117;46.680;11.154;2022-08-01T04:21:23;9.65;;;2.65;;
41289;SDS011;36117;46.680;11.154;2022-08-01T04:23:58;9.30;;;1.98;;
41289;SDS011;36117;46.680;11.154;2022-08-01T04:26:29;6.43;;;2.00;;
41289;SDS011;36117;46.680;11.154;2022-08-01T04:28:58;6.72;;;2.03;;
41289;SDS011;36117;46.680;11.154;2022-08-01T04:31:27;12.25;;;2.70;;
41289;SDS011;36117;46.680;11.154;2022-08-01T04:33:55;10.65;;;3.10;;
41289;SDS011;36117;46.680;11.154;2022-08-01T04:36:23;6.15;;;2.33;;
41289;SDS011;36117;46.680;11.154;2022-08-01T04:38:52;5.63;;;2.85;;
41289;SDS011;36117;46.680;11.154;2022-08-01T04:41:23;6.47;;;2.13;;
41289;SDS011;36117;46.680;11.154;2022-08-01T04:43:49;5.07;;;2.40;;
41289;SDS011;36117;46.680;11.154;2022-08-01T04:46:16;7.90;;;2.50;;
41289;SDS011;36117;46.680;11.154;2022-08-01T04:48:44;4.05;;;1.83;;
41289;SDS011;36117;46.680;11.154;2022-08-01T04:51:12;11.88;;;2.42;;
41289;SDS011;36117;46.680;11.154;2022-08-01T04:53:40;27.65;;;2.67;;
41289;SDS011;36117;46.680;11.154;2022-08-01T04:56:06;7.55;;;3.17;;
41289;SDS011;36117;46.680;11.154;2022-08-01T04:58:32;9.25;;;2.83;;
41289;SDS011;36117;46.680;11.154;2022-08-01T05:00:58;6.78;;;2.70;;
41289;SDS011;36117;46.680;11.154;2022-08-01T05:03:24;2.80;;;1.70;;
41289;SDS011;36117;46.680;11.154;2022-08-01T05:05:50;9.68;;;3.10;;
41289;SDS011;36117;46.680;11.154;2022-08-01T05:08:16;6.25;;;2.42;;
41289;SDS011;36117;46.680;11.154;2022-08-01T05:10:42;5.63;;;2.60;;
41289;SDS011;36117;46.680;11.154;2022-08-01T05:13:08;6.72;;;2.40;;
41289;SDS011;36117;46.680;11.154;2022-08-01T05:15:34;5.05;;;2.40;;
41289;SDS011;36117;46.680;11.154;2022-08-01T05:18:03;4.72;;;2.30;;
41289;SDS011;36117;46.680;11.154;2022-08-01T05:20:30;4.82;;;2.50;;
41289;SDS011;36117;46.680;11.154;2022-08-01T05:22:56;4.60;;;2.40;;
41289;SDS011;36117;46.680;11.154;2022-08-01T05:25:22;7.18;;;2.42;;
41289;SDS011;36117;46.680;11.154;2022-08-01T05:27:48;7.13;;;2.30;;
41289;SDS011;36117;46.680;11.154;2022-08-01T05:30:14;4.78;;;2.50;;
41289;SDS011;36117;46.680;11.154;2022-08-01T05:32:41;9.35;;;2.80;;
41289;SDS011;36117;46.680;11.154;2022-08-01T05:35:07;12.23;;;3.28;;
41289;SDS011;36117;46.680;11.154;2022-08-01T05:37:33;7.03;;;2.45;;
41289;SDS011;36117;46.680;11.154;2022-08-01T05:39:59;7.35;;;2.05;;
41289;SDS011;36117;46.680;11.154;2022-08-01T05:42:26;5.68;;;2.35;;
41289;SDS011;36117;46.680;11.154;2022-08-01T05:44:52;6.05;;;2.47;;
41289;SDS011;36117;46.680;11.154;2022-08-01T05:47:18;5.90;;;2.47;;
41289;SDS011;36117;46.680;11.154;2022-08-01T05:49:44;3.42;;;2.22;;
41289;SDS011;36117;46.680;11.154;2022-08-01T05:52:11;3.40;;;2.10;;
41289;SDS011;36117;46.680;11.154;2022-08-01T05:54:37;6.07;;;2.25;;
41289;SDS011;36117;46.680;11.154;2022-08-01T05:57:03;9.30;;;1.98;;
41289;SDS011;36117;46.680;11.154;2022-08-01T05:59:29;12.60;;;2.05;;
41289;SDS011;36117;46.680;11.154;2022-08-01T06:01:55;5.57;;;2.15;;
41289;SDS011;36117;46.680;11.154;2022-08-01T06:04:22;5.43;;;2.58;;
41289;SDS011;36117;46.680;11.154;2022-08-01T06:06:48;2.95;;;1.88;;
41289;SDS011;36117;46.680;11.154;2022-08-01T06:09:15;9.15;;;2.40;;
41289;SDS011;36117;46.680;11.154;2022-08-01T06:11:41;6.00;;;2.15;;
41289;SDS011;36117;46.680;11.154;2022-08-01T06:14:07;7.68;;;2.35;;
41289;SDS011;36117;46.680;11.154;2022-08-01T06:16:32;7.55;;;2.00;;
41289;SDS011;36117;46.680;11.154;2022-08-01T06:18:58;4.35;;;2.10;;
41289;SDS011;36117;46.680;11.154;2022-08-01T06:21:24;4.80;;;2.20;;
41289;SDS011;36117;46.680;11.154;2022-08-01T06:23:50;7.53;;;2.90;;
41289;SDS011;36117;46.680;11.154;2022-08-01T06:26:19;7.65;;;2.05;;
41289;SDS011;36117;46.680;11.154;2022-08-01T06:28:45;3.70;;;1.90;;
41289;SDS011;36117;46.680;11.154;2022-08-01T06:31:11;6.07;;;2.20;;
41289;SDS011;36117;46.680;11.154;2022-08-01T06:33:38;7.50;;;2.00;;
41289;SDS011;36117;46.680;11.154;2022-08-01T06:36:04;4.78;;;2.10;;
41289;SDS011;36117;46.680;11.154;2022-08-01T06:38:30;3.40;;;1.85;;
41289;SDS011;36117;46.680;11.154;2022-08-01T06:40:56;4.47;;;1.48;;
41289;SDS011;36117;46.680;11.154;2022-08-01T06:43:22;4.57;;;1.70;;
41289;SDS011;36117;46.680;11.154;2022-08-01T06:45:48;6.03;;;1.92;;
41289;SDS011;36117;46.680;11.154;2022-08-01T06:48:14;6.43;;;1.85;;
41289;SDS011;36117;46.680;11.154;2022-08-01T06:50:40;8.13;;;1.58;;
41289;SDS011;36117;46.680;11.154;2022-08-01T06:53:06;4.25;;;1.90;;
41289;SDS011;36117;46.680;11.154;2022-08-01T06:55:32;7.18;;;1.70;;
41289;SDS011;36117;46.680;11.154;2022-08-01T06:57:58;4.38;;;1.77;;
41289;SDS011;36117;46.680;11.154;2022-08-01T07:00:25;6.93;;;2.20;;
41289;SDS011;36117;46.680;11.154;2022-08-01T07:02:55;5.07;;;2.60;;
41289;SDS011;36117;46.680;11.154;2022-08-01T07:05:23;6.28;;;1.73;;
41289;SDS011;36117;46.680;11.154;2022-08-01T07:07:49;5.65;;;1.83;;
41289;SDS011;36117;46.680;11.154;2022-08-01T07:10:16;4.05;;;1.92;;
41289;SDS011;36117;46.680;11.154;2022-08-01T07:12:42;8.10;;;1.85;;
41289;SDS011;36117;46.680;11.154;2022-08-01T07:15:08;6.50;;;1.50;;
41289;SDS011;36117;46.680;11.154;2022-08-01T07:17:38;7.38;;;1.58;;
41289;SDS011;36117;46.680;11.154;2022-08-01T07:20:08;2.77;;;1.30;;
41289;SDS011;36117;46.680;11.154;2022-08-01T07:22:35;4.55;;;1.48;;
41289;SDS011;36117;46.680;11.154;2022-08-01T07:25:02;1.73;;;1.33;;
41289;SDS011;36117;46.680;11.154;2022-08-01T07:27:29;3.63;;;1.60;;
41289;SDS011;36117;46.680;11.154;2022-08-01T07:29:54;2.30;;;1.52;;
41289;SDS011;36117;46.680;11.154;2022-08-01T07:32:20;2.13;;;1.73;;
41289;SDS011;36117;46.680;11.154;2022-08-01T07:34:46;2.45;;;1.55;;
41289;SDS011;36117;46.680;11.154;2022-08-01T07:37:12;2.45;;;1.55;;
41289;SDS011;36117;46.680;11.154;2022-08-01T07:39:38;4.22;;;1.65;;
41289;SDS011;36117;46.680;11.154;2022-08-01T07:42:04;5.20;;;1.65;;
41289;SDS011;36117;46.680;11.154;2022-08-01T07:44:30;6.43;;;2.08;;
41289;SDS011;36117;46.680;11.154;2022-08-01T07:46:56;4.38;;;1.85;;
41289;SDS011;36117;46.680;11.154;2022-08-01T07:49:21;8.77;;;2.30;;
41289;SDS011;36117;46.680;11.154;2022-08-01T07:51:47;2.88;;;1.90;;
41289;SDS011;36117;46.680;11.154;2022-08-01T07:54:13;2.00;;;1.48;;
41289;SDS011;36117;46.680;11.154;2022-08-01T07:56:39;4.82;;;1.65;;
41289;SDS011;36117;46.680;11.154;2022-08-01T07:59:05;2.65;;;1.30;;
41289;SDS011;36117;46.680;11.154;2022-08-01T08:01:31;2.88;;;1.30;;
41289;SDS011;36117;46.680;11.154;2022-08-01T08:03:57;5.13;;;1.40;;
41289;SDS011;36117;46.680;11.154;2022-08-01T08:06:22;3.22;;;1.65;;
41289;SDS011;36117;46.680;11.154;2022-08-01T08:08:48;1.92;;;1.33;;
41289;SDS011;36117;46.680;11.154;2022-08-01T08:11:14;4.03;;;1.67;;
41289;SDS011;36117;46.680;11.154;2022-08-01T08:13:40;2.53;;;1.20;;
41289;SDS011;36117;46.680;11.154;2022-08-01T08:16:06;2.40;;;1.30;;
41289;SDS011;36117;46.680;11.154;2022-08-01T08:18:32;3.42;;;1.17;;
41289;SDS011;36117;46.680;11.154;2022-08-01T08:20:58;9.30;;;1.70;;
41289;SDS011;36117;46.680;11.154;2022-08-01T08:23:24;4.35;;;1.50;;
41289;SDS011;36117;46.680;11.154;2022-08-01T08:26:08;3.03;;;1.30;;
41289;SDS011;36117;46.680;11.154;2022-08-01T08:28:34;3.28;;;1.15;;
41289;SDS011;36117;46.680;11.154;2022-08-01T08:31:00;3.47;;;1.30;;
41289;SDS011;36117;46.680;11.154;2022-08-01T08:33:26;1.77;;;1.38;;
41289;SDS011;36117;46.680;11.154;2022-08-01T08:35:52;6.53;;;1.60;;
41289;SDS011;36117;46.680;11.154;2022-08-01T08:38:19;7.85;;;1.50;;
41289;SDS011;36117;46.680;11.154;2022-08-01T08:40:45;3.08;;;1.40;;
41289;SDS011;36117;46.680;11.154;2022-08-01T08:43:11;2.97;;;1.60;;
41289;SDS011;36117;46.680;11.154;2022-08-01T08:45:38;3.92;;;2.20;;
41289;SDS011;36117;46.680;11.154;2022-08-01T08:48:05;5.60;;;1.70;;
41289;SDS011;36117;46.680;11.154;2022-08-01T08:50:31;4.82;;;1.95;;
41289;SDS011;36117;46.680;11.154;2022-08-01T08:52:57;2.20;;;1.77;;
41289;SDS011;36117;46.680;11.154;2022-08-01T08:55:26;1.75;;;1.20;;
41289;SDS011;36117;46.680;11.154;2022-08-01T08:57:53;2.35;;;1.63;;
41289;SDS011;36117;46.680;11.154;2022-08-01T09:00:20;3.72;;;1.80;;
41289;SDS011;36117;46.680;11.154;2022-08-01T09:02:46;4.20;;;1.50;;
41289;SDS011;36117;46.680;11.154;2022-08-01T09:05:14;1.67;;;1.13;;
41289;SDS011;36117;46.680;11.154;2022-08-01T09:07:40;3.17;;;1.80;;
41289;SDS011;36117;46.680;11.154;2022-08-01T09:10:07;4.20;;;1.60;;
41289;SDS011;36117;46.680;11.154;2022-08-01T09:12:34;3.35;;;1.63;;
41289;SDS011;36117;46.680;11.154;2022-08-01T09:15:02;3.42;;;1.52;;
41289;SDS011;36117;46.680;11.154;2022-08-01T09:17:28;2.58;;;2.35;;
41289;SDS011;36117;46.680;11.154;2022-08-01T09:20:05;2.25;;;1.25;;
41289;SDS011;36117;46.680;11.154;2022-08-01T09:22:32;3.97;;;1.73;;
41289;SDS011;36117;46.680;11.154;2022-08-01T09:27:27;7.70;;;1.50;;
41289;SDS011;36117;46.680;11.154;2022-08-01T09:29:53;3.05;;;2.22;;
41289;SDS011;36117;46.680;11.154;2022-08-01T09:32:20;2.63;;;1.70;;
41289;SDS011;36117;46.680;11.154;2022-08-01T09:34:46;6.97;;;2.22;;
41289;SDS011;36117;46.680;11.154;2022-08-01T09:37:12;1.95;;;1.15;;
41289;SDS011;36117;46.680;11.154;2022-08-01T09:39:42;1.27;;;1.10;;
41289;SDS011;36117;46.680;11.154;2022-08-01T09:42:20;1.88;;;1.35;;
41289;SDS011;36117;46.680;11.154;2022-08-01T09:44:47;3.60;;;1.55;;
41289;SDS011;36117;46.680;11.154;2022-08-01T09:47:14;1.40;;;1.20;;
41289;SDS011;36117;46.680;11.154;2022-08-01T09:49:42;2.72;;;1.55;;
41289;SDS011;36117;46.680;11.154;2022-08-01T09:52:16;4.38;;;1.30;;
41289;SDS011;36117;46.680;11.154;2022-08-01T09:54:43;1.90;;;1.77;;
41289;SDS011;36117;46.680;11.154;2022-08-01T09:57:17;3.63;;;1.50;;
41289;SDS011;36117;46.680;11.154;2022-08-01T09:59:45;2.40;;;1.15;;
41289;SDS011;36117;46.680;11.154;2022-08-01T10:02:27;2.20;;;1.27;;
41289;SDS011;36117;46.680;11.154;2022-08-01T10:05:05;3.63;;;1.35;;
41289;SDS011;36117;46.680;11.154;2022-08-01T10:07:33;2.55;;;1.75;;
41289;SDS011;36117;46.680;11.154;2022-08-01T10:10:09;2.60;;;1.27;;
41289;SDS011;36117;46.680;11.154;2022-08-01T10:12:36;1.95;;;1.10;;
41289;SDS011;36117;46.680;11.154;2022-08-01T10:15:04;7.38;;;1.45;;
41289;SDS011;36117;46.680;11.154;2022-08-01T10:17:31;4.15;;;1.40;;
41289;SDS011;36117;46.680;11.154;2022-08-01T10:19:59;5.25;;;1.45;;
41289;SDS011;36117;46.680;11.154;2022-08-01T10:22:26;3.75;;;1.40;;
41289;SDS011;36117;46.680;11.154;2022-08-01T10:24:55;1.80;;;1.10;;
41289;SDS011;36117;46.680;11.154;2022-08-01T10:27:22;5.45;;;1.15;;
41289;SDS011;36117;46.680;11.154;2022-08-01T10:29:54;4.10;;;1.63;;
41289;SDS011;36117;46.680;11.154;2022-08-01T10:32:29;3.63;;;2.15;;
41289;SDS011;36117;46.680;11.154;2022-08-01T10:34:56;3.83;;;1.00;;
41289;SDS011;36117;46.680;11.154;2022-08-01T10:37:22;6.40;;;1.20;;
41289;SDS011;36117;46.680;11.154;2022-08-01T10:39:50;1.50;;;0.95;;
41289;SDS011;36117;46.680;11.154;2022-08-01T10:42:18;2.80;;;1.20;;
41289;SDS011;36117;46.680;11.154;2022-08-01T10:44:44;8.48;;;1.55;;
41289;SDS011;36117;46.680;11.154;2022-08-01T10:47:17;1.67;;;0.90;;
41289;SDS011;36117;46.680;11.154;2022-08-01T10:49:53;3.47;;;0.90;;
41289;SDS011;36117;46.680;11.154;2022-08-01T10:52:26;3.05;;;1.02;;
41289;SDS011;36117;46.680;11.154;2022-08-01T10:55:05;4.07;;;1.60;;
41289;SDS011;36117;46.680;11.154;2022-08-01T10:57:45;3.80;;;1.00;;
41289;SDS011;36117;46.680;11.154;2022-08-01T11:00:18;2.35;;;1.52;;
41289;SDS011;36117;46.680;11.154;2022-08-01T11:02:58;2.20;;;1.05;;
41289;SDS011;36117;46.680;11.154;2022-08-01T11:05:26;4.63;;;1.08;;
41289;SDS011;36117;46.680;11.154;2022-08-01T11:07:56;1.80;;;0.77;;
41289;SDS011;36117;46.680;11.154;2022-08-01T11:10:33;2.17;;;1.33;;
41289;SDS011;36117;46.680;11.154;2022-08-01T11:13:04;2.38;;;0.80;;
41289;SDS011;36117;46.680;11.154;2022-08-01T11:15:35;1.63;;;0.95;;
41289;SDS011;36117;46.680;11.154;2022-08-01T11:18:03;1.10;;;1.00;;
41289;SDS011;36117;46.680;11.154;2022-08-01T11:20:56;0.93;;;0.82;;
41289;SDS011;36117;46.680;11.154;2022-08-01T11:23:26;1.77;;;0.90;;
41289;SDS011;36117;46.680;11.154;2022-08-01T11:28:20;0.98;;;0.80;;
41289;SDS011;36117;46.680;11.154;2022-08-01T11:30:54;0.77;;;0.77;;
41289;SDS011;36117;46.680;11.154;2022-08-01T11:38:35;3.58;;;1.73;;
41289;SDS011;36117;46.680;11.154;2022-08-01T11:41:10;4.25;;;0.90;;
41289;SDS011;36117;46.680;11.154;2022-08-01T11:43:56;4.88;;;0.80;;
41289;SDS011;36117;46.680;11.154;2022-08-01T11:49:30;4.28;;;1.20;;
41289;SDS011;36117;46.680;11.154;2022-08-01T11:54:37;0.88;;;0.70;;
41289;SDS011;36117;46.680;11.154;2022-08-01T11:57:06;3.10;;;0.98;;
41289;SDS011;36117;46.680;11.154;2022-08-01T11:59:44;2.03;;;0.98;;
41289;SDS011;36117;46.680;11.154;2022-08-01T12:04:54;3.28;;;1.30;;
41289;SDS011;36117;46.680;11.154;2022-08-01T12:07:22;1.90;;;1.25;;
41289;SDS011;36117;46.680;11.154;2022-08-01T12:12:47;1.08;;;0.90;;
41289;SDS011;36117;46.680;11.154;2022-08-01T12:15:14;1.88;;;1.05;;
41289;SDS011;36117;46.680;11.154;2022-08-01T12:17:45;4.32;;;1.58;;
41289;SDS011;36117;46.680;11.154;2022-08-01T12:20:14;1.60;;;0.80;;
41289;SDS011;36117;46.680;11.154;2022-08-01T12:22:44;7.07;;;1.20;;
41289;SDS011;36117;46.680;11.154;2022-08-01T12:25:13;1.45;;;1.25;;
41289;SDS011;36117;46.680;11.154;2022-08-01T12:27:42;4.70;;;1.17;;
41289;SDS011;36117;46.680;11.154;2022-08-01T12:30:10;2.60;;;1.38;;
41289;SDS011;36117;46.680;11.154;2022-08-01T12:32:39;3.28;;;1.02;;
41289;SDS011;36117;46.680;11.154;2022-08-01T12:37:37;2.15;;;1.00;;
41289;SDS011;36117;46.680;11.154;2022-08-01T12:42:41;4.15;;;1.90;;
41289;SDS011;36117;46.680;11.154;2022-08-01T12:45:09;1.88;;;1.13;;
41289;SDS011;36117;46.680;11.154;2022-08-01T12:47:37;1.33;;;0.70;;
41289;SDS011;36117;46.680;11.154;2022-08-01T12:50:07;2.88;;;0.85;;
41289;SDS011;36117;46.680;11.154;2022-08-01T12:52:40;1.90;;;1.45;;
41289;SDS011;36117;46.680;11.154;2022-08-01T12:55:16;2.50;;;1.80;;
41289;SDS011;36117;46.680;11.154;2022-08-01T12:57:44;2.17;;;1.52;;
41289;SDS011;36117;46.680;11.154;2022-08-01T13:00:22;3.08;;;1.08;;
41289;SDS011;36117;46.680;11.154;2022-08-01T13:02:51;1.10;;;1.00;;
41289;SDS011;36117;46.680;11.154;2022-08-01T13:08:17;4.97;;;0.93;;
41289;SDS011;36117;46.680;11.154;2022-08-01T13:10:45;2.45;;;0.90;;
41289;SDS011;36117;46.680;11.154;2022-08-01T13:13:11;1.52;;;0.82;;
41289;SDS011;36117;46.680;11.154;2022-08-01T13:15:39;4.05;;;1.08;;
41289;SDS011;36117;46.680;11.154;2022-08-01T13:21:10;3.78;;;1.17;;
41289;SDS011;36117;46.680;11.154;2022-08-01T13:26:41;2.15;;;0.98;;
41289;SDS011;36117;46.680;11.154;2022-08-01T13:29:15;3.53;;;1.08;;
41289;SDS011;36117;46.680;11.154;2022-08-01T13:34:42;1.30;;;1.20;;
41289;SDS011;36117;46.680;11.154;2022-08-01T13:37:08;2.38;;;0.90;;
41289;SDS011;36117;46.680;11.154;2022-08-01T13:39:34;2.10;;;1.00;;
41289;SDS011;36117;46.680;11.154;2022-08-01T13:42:07;6.07;;;1.13;;
41289;SDS011;36117;46.680;11.154;2022-08-01T13:44:34;2.40;;;1.30;;
41289;SDS011;36117;46.680;11.154;2022-08-01T13:47:01;2.10;;;0.90;;
41289;SDS011;36117;46.680;11.154;2022-08-01T13:49:30;4.20;;;1.50;;
41289;SDS011;36117;46.680;11.154;2022-08-01T13:51:56;3.65;;;0.82;;
41289;SDS011;36117;46.680;11.154;2022-08-01T13:54:23;1.52;;;1.35;;
41289;SDS011;36117;46.680;11.154;2022-08-01T13:56:49;3.17;;;0.90;;
41289;SDS011;36117;46.680;11.154;2022-08-01T13:59:16;4.80;;;0.90;;
41289;SDS011;36117;46.680;11.154;2022-08-01T14:01:42;6.40;;;1.40;;
41289;SDS011;36117;46.680;11.154;2022-08-01T14:04:08;2.47;;;1.40;;
41289;SDS011;36117;46.680;11.154;2022-08-01T14:06:34;4.45;;;1.20;;
41289;SDS011;36117;46.680;11.154;2022-08-01T14:09:01;5.38;;;1.17;;
41289;SDS011;36117;46.680;11.154;2022-08-01T14:11:29;1.58;;;1.10;;
41289;SDS011;36117;46.680;11.154;2022-08-01T14:13:55;3.92;;;0.90;;
41289;SDS011;36117;46.680;11.154;2022-08-01T14:16:22;5.07;;;1.00;;
41289;SDS011;36117;46.680;11.154;2022-08-01T14:18:48;7.32;;;1.75;;
41289;SDS011;36117;46.680;11.154;2022-08-01T14:21:15;3.22;;;1.20;;
41289;SDS011;36117;46.680;11.154;2022-08-01T14:23:42;6.53;;;1.52;;
41289;SDS011;36117;46.680;11.154;2022-08-01T14:26:08;2.75;;;2.00;;
41289;SDS011;36117;46.680;11.154;2022-08-01T14:28:35;4.60;;;1.67;;
41289;SDS011;36117;46.680;11.154;2022-08-01T14:31:02;6.75;;;1.25;;
41289;SDS011;36117;46.680;11.154;2022-08-01T14:33:28;4.18;;;1.55;;
41289;SDS011;36117;46.680;11.154;2022-08-01T14:35:55;1.67;;;0.88;;
41289;SDS011;36117;46.680;11.154;2022-08-01T14:38:21;1.13;;;0.80;;
41289;SDS011;36117;46.680;11.154;2022-08-01T14:40:48;3.65;;;1.42;;
41289;SDS011;36117;46.680;11.154;2022-08-01T14:43:16;4.03;;;1.73;;
41289;SDS011;36117;46.680;11.154;2022-08-01T14:45:43;1.90;;;1.05;;
41289;SDS011;36117;46.680;11.154;2022-08-01T14:48:09;1.42;;;0.63;;
41289;SDS011;36117;46.680;11.154;2022-08-01T14:50:35;2.10;;;1.10;;
41289;SDS011;36117;46.680;11.154;2022-08-01T14:53:01;5.40;;;0.90;;
41289;SDS011;36117;46.680;11.154;2022-08-01T14:55:27;4.40;;;1.02;;
41289;SDS011;36117;46.680;11.154;2022-08-01T14:57:53;2.42;;;1.55;;
41289;SDS011;36117;46.680;11.154;2022-08-01T15:00:19;2.38;;;1.30;;
41289;SDS011;36117;46.680;11.154;2022-08-01T15:02:46;7.07;;;1.00;;
41289;SDS011;36117;46.680;11.154;2022-08-01T15:05:12;2.00;;;0.85;;
41289;SDS011;36117;46.680;11.154;2022-08-01T15:07:38;1.02;;;0.75;;
41289;SDS011;36117;46.680;11.154;2022-08-01T15:10:04;1.60;;;0.70;;
41289;SDS011;36117;46.680;11.154;2022-08-01T15:12:31;1.52;;;1.00;;
41289;SDS011;36117;46.680;11.154;2022-08-01T15:14:57;3.22;;;1.13;;
41289;SDS011;36117;46.680;11.154;2022-08-01T15:17:24;6.53;;;1.02;;
41289;SDS011;36117;46.680;11.154;2022-08-01T15:19:56;3.15;;;0.80;;
41289;SDS011;36117;46.680;11.154;2022-08-01T15:22:24;6.07;;;1.90;;
41289;SDS011;36117;46.680;11.154;2022-08-01T15:24:51;2.38;;;1.20;;
41289;SDS011;36117;46.680;11.154;2022-08-01T15:27:18;4.25;;;1.23;;
41289;SDS011;36117;46.680;11.154;2022-08-01T15:29:46;5.65;;;1.48;;
41289;SDS011;36117;46.680;11.154;2022-08-01T15:32:12;1.75;;;1.00;;
41289;SDS011;36117;46.680;11.154;2022-08-01T15:34:39;5.32;;;1.30;;
41289;SDS011;36117;46.680;11.154;2022-08-01T15:37:06;7.38;;;1.10;;
41289;SDS011;36117;46.680;11.154;2022-08-01T15:39:32;2.17;;;1.35;;
41289;SDS011;36117;46.680;11.154;2022-08-01T15:42:00;1.33;;;0.95;;
41289;SDS011;36117;46.680;11.154;2022-08-01T15:44:45;2.97;;;0.95;;